TFV009 LFKJ-ENGM
Flight info
| Callsign | TFV009 |
|---|---|
| Flight time | N/A |
| Altitude | 36000 |
| Route | TORTU DCT ERTEV DCT ABESI DCT LOKTA/N0451F370 DCT TEDGO DCT HAREM DCT LOHRE DCT ELNAT/N0449F380 DCT DOSUR DCT PIPEX/N0449F370 M609 RIPAM |
| Aircraft | B738/M-SDE2E3FGHIRWXY/LB1 |
Departure
| Time | 2026-05-09 15:58 |
|---|---|
| Airport | Ajaccio Napoléon Bonaparte airport (LFKJ) |
Arrival
| Time | N/A |
|---|---|
| Airport | Oslo-Gardermoen International Airport (ENGM) |
| Time | Latitude | Longitude | Altitude | Speed | Heading |
|---|---|---|---|---|---|
| 2026-05-09 15:54 | 41.92293 | 8.79135 | 18 ft | 0 kts | 186° |
| 2026-05-09 15:54 | 41.92294 | 8.79125 | 20 ft | 2 kts | 289° |
| 2026-05-09 15:54 | 41.92329 | 8.79164 | 19 ft | 22 kts | 74° |
| 2026-05-09 15:55 | 41.92324 | 8.79387 | 19 ft | 24 kts | 93° |
| 2026-05-09 15:55 | 41.92296 | 8.79601 | 21 ft | 23 kts | 110° |
| 2026-05-09 15:55 | 41.92292 | 8.79812 | 25 ft | 22 kts | 84° |
| 2026-05-09 15:55 | 41.92414 | 8.79926 | 28 ft | 23 kts | 24° |
| 2026-05-09 15:56 | 41.92556 | 8.80012 | 25 ft | 22 kts | 21° |
| 2026-05-09 15:56 | 41.92700 | 8.80103 | 26 ft | 23 kts | 27° |
| 2026-05-09 15:56 | 41.92828 | 8.80226 | 27 ft | 23 kts | 44° |
| 2026-05-09 15:56 | 41.92936 | 8.80375 | 29 ft | 22 kts | 46° |
| 2026-05-09 15:57 | 41.92930 | 8.80538 | 31 ft | 19 kts | 152° |
| 2026-05-09 15:57 | 41.92724 | 8.80453 | 27 ft | 64 kts | 204° |
| 2026-05-09 15:57 | 41.92077 | 8.80057 | 21 ft | 138 kts | 206° |
| 2026-05-09 15:57 | 41.91029 | 8.79395 | 169 ft | 186 kts | 205° |
| 2026-05-09 15:58 | 41.89823 | 8.78491 | 694 ft | 211 kts | 223° |
| 2026-05-09 15:58 | 41.89163 | 8.76856 | 1890 ft | 193 kts | 250° |
| 2026-05-09 15:58 | 41.88606 | 8.75117 | 2436 ft | 216 kts | 243° |
| 2026-05-09 15:58 | 41.87891 | 8.73184 | 2615 ft | 245 kts | 242° |
| 2026-05-09 15:59 | 41.87095 | 8.71094 | 3220 ft | 254 kts | 239° |
| 2026-05-09 15:59 | 41.86303 | 8.69025 | 4234 ft | 243 kts | 240° |
| 2026-05-09 15:59 | 41.85908 | 8.66839 | 5101 ft | 246 kts | 272° |
| 2026-05-09 15:59 | 41.86453 | 8.64672 | 5863 ft | 251 kts | 304° |
| 2026-05-09 16:00 | 41.87681 | 8.62987 | 6564 ft | 255 kts | 319° |
| 2026-05-09 16:00 | 41.88131 | 8.62499 | 6765 ft | 257 kts | 320° |
| 2026-05-09 16:00 | 41.90668 | 8.60293 | 7823 ft | 266 kts | 345° |
| 2026-05-09 16:00 | 41.92519 | 8.60253 | 8313 ft | 276 kts | 16° |
| 2026-05-09 16:01 | 41.94351 | 8.61297 | 8568 ft | 295 kts | 28° |
| 2026-05-09 16:01 | 41.96203 | 8.62592 | 9139 ft | 304 kts | 29° |
| 2026-05-09 16:01 | 41.98081 | 8.63928 | 9857 ft | 307 kts | 29° |
| 2026-05-09 16:01 | 41.99993 | 8.65287 | 10329 ft | 320 kts | 29° |
| 2026-05-09 16:02 | 42.02035 | 8.66731 | 10478 ft | 342 kts | 29° |
| 2026-05-09 16:02 | 42.06490 | 8.69851 | 11020 ft | 375 kts | 28° |
| 2026-05-09 16:02 | 42.08817 | 8.71471 | 11658 ft | 378 kts | 28° |
| 2026-05-09 16:03 | 42.11131 | 8.73080 | 12297 ft | 381 kts | 28° |
| 2026-05-09 16:03 | 42.13532 | 8.74751 | 12948 ft | 385 kts | 28° |
| 2026-05-09 16:03 | 42.15894 | 8.76396 | 13559 ft | 389 kts | 28° |
| 2026-05-09 16:03 | 42.18304 | 8.78077 | 14195 ft | 391 kts | 28° |
| 2026-05-09 16:04 | 42.20734 | 8.79772 | 14770 ft | 396 kts | 28° |
| 2026-05-09 16:04 | 42.23191 | 8.81488 | 15351 ft | 398 kts | 28° |
| 2026-05-09 16:04 | 42.25750 | 8.82951 | 15849 ft | 403 kts | 13° |
| 2026-05-09 16:04 | 42.28536 | 8.83372 | 16479 ft | 402 kts | 3° |
| 2026-05-09 16:05 | 42.31316 | 8.83626 | 17241 ft | 401 kts | 3° |
| 2026-05-09 16:05 | 42.34121 | 8.83897 | 17652 ft | 408 kts | 4° |
| 2026-05-09 16:05 | 42.36964 | 8.84188 | 18239 ft | 410 kts | 4° |
| 2026-05-09 16:05 | 42.39808 | 8.84492 | 18764 ft | 411 kts | 4° |
| 2026-05-09 16:06 | 42.42677 | 8.84806 | 19169 ft | 417 kts | 4° |
| 2026-05-09 16:06 | 42.45589 | 8.85135 | 19572 ft | 421 kts | 4° |
| 2026-05-09 16:06 | 42.48518 | 8.85465 | 20042 ft | 425 kts | 3° |
| 2026-05-09 16:06 | 42.51479 | 8.85797 | 20395 ft | 430 kts | 3° |
| 2026-05-09 16:07 | 42.54474 | 8.86133 | 20786 ft | 434 kts | 3° |
| 2026-05-09 16:07 | 42.57495 | 8.86475 | 21200 ft | 438 kts | 2° |
| 2026-05-09 16:07 | 42.60503 | 8.86815 | 21600 ft | 441 kts | 2° |
| 2026-05-09 16:07 | 42.63575 | 8.87163 | 21988 ft | 445 kts | 2° |
| 2026-05-09 16:08 | 42.66675 | 8.87514 | 22357 ft | 449 kts | 2° |
| 2026-05-09 16:08 | 42.69806 | 8.87870 | 22740 ft | 453 kts | 1° |
| 2026-05-09 16:08 | 42.72957 | 8.88227 | 23106 ft | 456 kts | 1° |
| 2026-05-09 16:08 | 42.76133 | 8.88588 | 23467 ft | 460 kts | 1° |
| 2026-05-09 16:09 | 42.79331 | 8.88952 | 23775 ft | 463 kts | 1° |
| 2026-05-09 16:09 | 42.82552 | 8.89320 | 24113 ft | 465 kts | 1° |
| 2026-05-09 16:09 | 42.85780 | 8.89689 | 24458 ft | 467 kts | 1° |
| 2026-05-09 16:09 | 42.89023 | 8.90060 | 24787 ft | 469 kts | 1° |
| 2026-05-09 16:10 | 42.92285 | 8.90433 | 25075 ft | 472 kts | 1° |
| 2026-05-09 16:10 | 42.95568 | 8.90809 | 25372 ft | 475 kts | 1° |
| 2026-05-09 16:10 | 42.98871 | 8.91187 | 25684 ft | 477 kts | 1° |
| 2026-05-09 16:10 | 43.02182 | 8.91568 | 25990 ft | 479 kts | 1° |
| 2026-05-09 16:11 | 43.05508 | 8.91950 | 26275 ft | 481 kts | 1° |
| 2026-05-09 16:11 | 43.08851 | 8.92334 | 26560 ft | 483 kts | 1° |
| 2026-05-09 16:11 | 43.12213 | 8.92721 | 26859 ft | 485 kts | 1° |
| 2026-05-09 16:11 | 43.15580 | 8.93110 | 27143 ft | 487 kts | 1° |
| 2026-05-09 16:12 | 43.18961 | 8.93500 | 27413 ft | 489 kts | 1° |
| 2026-05-09 16:12 | 43.22358 | 8.93892 | 27673 ft | 491 kts | 1° |
| 2026-05-09 16:12 | 43.25770 | 8.94287 | 27918 ft | 493 kts | 1° |
| 2026-05-09 16:12 | 43.29197 | 8.94684 | 28213 ft | 494 kts | 1° |
| 2026-05-09 16:13 | 43.32611 | 8.95081 | 28680 ft | 491 kts | 1° |
| 2026-05-09 16:13 | 43.36020 | 8.95477 | 28966 ft | 492 kts | 1° |
| 2026-05-09 16:13 | 43.39440 | 8.95855 | 29208 ft | 493 kts | 359° |
| 2026-05-09 16:13 | 43.42870 | 8.95993 | 29462 ft | 493 kts | 356° |
| 2026-05-09 16:14 | 43.46297 | 8.95960 | 29801 ft | 492 kts | 355° |
| 2026-05-09 16:14 | 43.49710 | 8.95882 | 30203 ft | 489 kts | 355° |
| 2026-05-09 16:14 | 43.53109 | 8.95821 | 30583 ft | 487 kts | 355° |
| 2026-05-09 16:14 | 43.56450 | 8.95794 | 30848 ft | 487 kts | 355° |
| 2026-05-09 16:15 | 43.59844 | 8.95791 | 31048 ft | 489 kts | 356° |
| 2026-05-09 16:15 | 43.63246 | 8.95795 | 31275 ft | 489 kts | 356° |
| 2026-05-09 16:15 | 43.66649 | 8.95832 | 31554 ft | 489 kts | 356° |
| 2026-05-09 16:15 | 43.70050 | 8.95928 | 31845 ft | 489 kts | 356° |
| 2026-05-09 16:16 | 43.73456 | 8.96052 | 32073 ft | 489 kts | 356° |
| 2026-05-09 16:16 | 43.76860 | 8.96182 | 32298 ft | 490 kts | 356° |
| 2026-05-09 16:16 | 43.80266 | 8.96311 | 32548 ft | 490 kts | 356° |
| 2026-05-09 16:16 | 43.83669 | 8.96435 | 32795 ft | 489 kts | 356° |
| 2026-05-09 16:17 | 43.87074 | 8.96553 | 33029 ft | 489 kts | 356° |
| 2026-05-09 16:17 | 43.90470 | 8.96667 | 33366 ft | 487 kts | 355° |
| 2026-05-09 16:17 | 43.93848 | 8.96780 | 33733 ft | 484 kts | 355° |
| 2026-05-09 16:17 | 43.97212 | 8.96890 | 33947 ft | 484 kts | 355° |
| 2026-05-09 16:18 | 44.00584 | 8.96998 | 34083 ft | 486 kts | 355° |
| 2026-05-09 16:18 | 44.03962 | 8.97106 | 34270 ft | 486 kts | 355° |
| 2026-05-09 16:18 | 44.07339 | 8.97216 | 34529 ft | 484 kts | 355° |
| 2026-05-09 16:18 | 44.10685 | 8.97328 | 34903 ft | 478 kts | 355° |
| 2026-05-09 16:19 | 44.13999 | 8.97439 | 35209 ft | 476 kts | 355° |
| 2026-05-09 16:19 | 44.17304 | 8.97548 | 35384 ft | 475 kts | 354° |
| 2026-05-09 16:19 | 44.20619 | 8.97655 | 35520 ft | 476 kts | 354° |
| 2026-05-09 16:19 | 44.23934 | 8.97762 | 35653 ft | 477 kts | 355° |
| 2026-05-09 16:20 | 44.27250 | 8.97869 | 35857 ft | 476 kts | 354° |
| 2026-05-09 16:20 | 44.30512 | 8.97978 | 36066 ft | 475 kts | 354° |
| 2026-05-09 16:20 | 44.37168 | 8.98193 | 36050 ft | 481 kts | 354° |
| 2026-05-09 16:21 | 44.43890 | 8.98413 | 36058 ft | 485 kts | 355° |
| 2026-05-09 16:21 | 44.50664 | 8.98638 | 36047 ft | 488 kts | 355° |
| 2026-05-09 16:22 | 44.57462 | 8.98867 | 36040 ft | 489 kts | 354° |
| 2026-05-09 16:22 | 44.64258 | 8.99095 | 36039 ft | 489 kts | 355° |
| 2026-05-09 16:23 | 44.71042 | 8.99285 | 36037 ft | 487 kts | 354° |
| 2026-05-09 16:23 | 44.77813 | 8.99520 | 36017 ft | 487 kts | 354° |
| 2026-05-09 16:24 | 44.84578 | 8.99771 | 36034 ft | 486 kts | 354° |
| 2026-05-09 16:24 | 44.91332 | 9.00007 | 36014 ft | 485 kts | 354° |
| 2026-05-09 16:25 | 44.96937 | 9.00197 | 36003 ft | 484 kts | 354° |
| 2026-05-09 16:25 | 45.04784 | 9.00462 | 36024 ft | 482 kts | 354° |
| 2026-05-09 16:26 | 45.10349 | 9.00650 | 36008 ft | 481 kts | 354° |
| 2026-05-09 16:26 | 45.17031 | 9.00876 | 36039 ft | 480 kts | 354° |
| 2026-05-09 16:27 | 45.23695 | 9.01103 | 36041 ft | 479 kts | 354° |
| 2026-05-09 16:27 | 45.30350 | 9.01330 | 36009 ft | 478 kts | 354° |
| 2026-05-09 16:28 | 45.37002 | 9.01557 | 36016 ft | 477 kts | 354° |
| 2026-05-09 16:28 | 45.43641 | 9.01784 | 36037 ft | 477 kts | 354° |
| 2026-05-09 16:29 | 45.50276 | 9.02013 | 36019 ft | 476 kts | 354° |
| 2026-05-09 16:29 | 45.56902 | 9.02241 | 36018 ft | 476 kts | 354° |
| 2026-05-09 16:30 | 45.63444 | 9.02467 | 36037 ft | 475 kts | 354° |
| 2026-05-09 16:30 | 45.70133 | 9.02698 | 36014 ft | 476 kts | 354° |
| 2026-05-09 16:31 | 45.76748 | 9.02927 | 36020 ft | 476 kts | 354° |
| 2026-05-09 16:31 | 45.83369 | 9.03157 | 36033 ft | 476 kts | 354° |
| 2026-05-09 16:32 | 45.89996 | 9.03388 | 36013 ft | 476 kts | 354° |
| 2026-05-09 16:32 | 45.96577 | 9.03618 | 36015 ft | 477 kts | 354° |
| 2026-05-09 16:33 | 46.03208 | 9.03851 | 36034 ft | 476 kts | 354° |
| 2026-05-09 16:33 | 46.09822 | 9.04084 | 36029 ft | 474 kts | 354° |
| 2026-05-09 16:34 | 46.16406 | 9.04315 | 36031 ft | 474 kts | 355° |
| 2026-05-09 16:34 | 46.23010 | 9.04703 | 36037 ft | 475 kts | 356° |
| 2026-05-09 16:35 | 46.29621 | 9.05184 | 36031 ft | 476 kts | 356° |
| 2026-05-09 16:35 | 46.36225 | 9.05659 | 36017 ft | 475 kts | 356° |
| 2026-05-09 16:36 | 46.49398 | 9.06546 | 36025 ft | 473 kts | 355° |
| 2026-05-09 16:37 | 46.55958 | 9.06998 | 36032 ft | 472 kts | 355° |
| 2026-05-09 16:37 | 46.62519 | 9.07451 | 36038 ft | 472 kts | 356° |
| 2026-05-09 16:38 | 46.69071 | 9.07902 | 36040 ft | 471 kts | 356° |
| 2026-05-09 16:38 | 46.75612 | 9.08350 | 36032 ft | 471 kts | 356° |
| 2026-05-09 16:39 | 46.82152 | 9.08799 | 36044 ft | 470 kts | 356° |
| 2026-05-09 16:39 | 46.88648 | 9.09237 | 36016 ft | 471 kts | 356° |
| 2026-05-09 16:40 | 46.95189 | 9.09696 | 35993 ft | 470 kts | 355° |
| 2026-05-09 16:42 | 47.21201 | 9.11501 | 35997 ft | 465 kts | 356° |
| 2026-05-09 16:42 | 47.27664 | 9.11956 | 36005 ft | 465 kts | 356° |
| 2026-05-09 16:43 | 47.34125 | 9.12410 | 35993 ft | 465 kts | 356° |
| 2026-05-09 16:43 | 47.40579 | 9.12863 | 36012 ft | 464 kts | 356° |
| 2026-05-09 16:44 | 47.47038 | 9.13319 | 36012 ft | 465 kts | 356° |
| 2026-05-09 16:44 | 47.53499 | 9.13776 | 35996 ft | 465 kts | 356° |
| 2026-05-09 16:45 | 47.59957 | 9.14234 | 35997 ft | 464 kts | 356° |
| 2026-05-09 16:45 | 47.66414 | 9.14693 | 36012 ft | 464 kts | 356° |
| 2026-05-09 16:46 | 47.72772 | 9.15146 | 35998 ft | 464 kts | 356° |
| 2026-05-09 16:46 | 47.79209 | 9.15604 | 35999 ft | 463 kts | 356° |
| 2026-05-09 16:47 | 47.85639 | 9.16064 | 36005 ft | 462 kts | 356° |
| 2026-05-09 16:47 | 47.92060 | 9.16527 | 36007 ft | 462 kts | 357° |
| 2026-05-09 16:48 | 47.98438 | 9.16982 | 36006 ft | 462 kts | 357° |
| 2026-05-09 16:48 | 48.04853 | 9.17443 | 36006 ft | 462 kts | 357° |
| 2026-05-09 16:49 | 48.11240 | 9.17904 | 36011 ft | 462 kts | 359° |
| 2026-05-09 16:50 | 48.20874 | 9.18847 | 36011 ft | 464 kts | 2° |
| 2026-05-09 16:50 | 48.27258 | 9.19980 | 36008 ft | 465 kts | 3° |
| 2026-05-09 16:51 | 48.33764 | 9.21147 | 36008 ft | 465 kts | 3° |
| 2026-05-09 16:51 | 48.40201 | 9.22248 | 36012 ft | 466 kts | 3° |
| 2026-05-09 16:52 | 48.46653 | 9.23334 | 36002 ft | 466 kts | 3° |
| 2026-05-09 16:52 | 48.53107 | 9.24423 | 35994 ft | 467 kts | 3° |
| 2026-05-09 16:53 | 48.59525 | 9.25512 | 35996 ft | 467 kts | 3° |
| 2026-05-09 16:53 | 48.65992 | 9.26573 | 35992 ft | 467 kts | 2° |
| 2026-05-09 16:54 | 48.72457 | 9.27546 | 36007 ft | 467 kts | 2° |
| 2026-05-09 16:54 | 48.78926 | 9.28515 | 35999 ft | 467 kts | 2° |
| 2026-05-09 16:55 | 48.85389 | 9.29498 | 35993 ft | 466 kts | 2° |
| 2026-05-09 16:55 | 48.91845 | 9.30488 | 36003 ft | 466 kts | 3° |
| 2026-05-09 16:56 | 48.98208 | 9.31469 | 36007 ft | 465 kts | 3° |
| 2026-05-09 16:56 | 49.04650 | 9.32464 | 36004 ft | 465 kts | 3° |
| 2026-05-09 16:57 | 49.11081 | 9.33459 | 36012 ft | 464 kts | 3° |
| 2026-05-09 16:57 | 49.17496 | 9.34454 | 36019 ft | 463 kts | 3° |
| 2026-05-09 16:58 | 49.23912 | 9.35452 | 36017 ft | 463 kts | 3° |
| 2026-05-09 16:58 | 49.30317 | 9.36453 | 36020 ft | 463 kts | 3° |
| 2026-05-09 16:59 | 49.36737 | 9.37455 | 36032 ft | 464 kts | 3° |
| 2026-05-09 16:59 | 49.43165 | 9.38462 | 36022 ft | 465 kts | 3° |
| 2026-05-09 17:00 | 49.49609 | 9.39475 | 36025 ft | 466 kts | 3° |
| 2026-05-09 17:00 | 49.56068 | 9.40493 | 36034 ft | 467 kts | 3° |
| 2026-05-09 17:01 | 49.62530 | 9.41515 | 36042 ft | 467 kts | 3° |
| 2026-05-09 17:01 | 49.68992 | 9.42542 | 36033 ft | 467 kts | 4° |
| 2026-05-09 17:02 | 49.75452 | 9.43573 | 36036 ft | 467 kts | 4° |
| 2026-05-09 17:02 | 49.81913 | 9.44607 | 36051 ft | 466 kts | 4° |
| 2026-05-09 17:03 | 49.88368 | 9.45643 | 36038 ft | 466 kts | 4° |
| 2026-05-09 17:05 | 50.14043 | 9.49866 | 36034 ft | 464 kts | 5° |
| 2026-05-09 17:05 | 50.20452 | 9.51014 | 36032 ft | 464 kts | 5° |
| 2026-05-09 17:06 | 50.26864 | 9.52160 | 36046 ft | 463 kts | 5° |
| 2026-05-09 17:06 | 50.33263 | 9.53299 | 36039 ft | 463 kts | 5° |
| 2026-05-09 17:07 | 50.39665 | 9.54440 | 36042 ft | 463 kts | 5° |
| 2026-05-09 17:07 | 50.46056 | 9.55582 | 36046 ft | 462 kts | 5° |
| 2026-05-09 17:08 | 50.52451 | 9.56727 | 36051 ft | 462 kts | 5° |
| 2026-05-09 17:08 | 50.61993 | 9.58443 | 36048 ft | 462 kts | 5° |
| 2026-05-09 17:09 | 50.68380 | 9.59595 | 36054 ft | 462 kts | 5° |
| 2026-05-09 17:09 | 50.74775 | 9.60752 | 36055 ft | 463 kts | 5° |
| 2026-05-09 17:10 | 50.81170 | 9.61912 | 36058 ft | 463 kts | 5° |
| 2026-05-09 17:10 | 50.87567 | 9.63076 | 36057 ft | 463 kts | 5° |
| 2026-05-09 17:11 | 50.93963 | 9.64242 | 36064 ft | 463 kts | 5° |
| 2026-05-09 17:11 | 51.00367 | 9.65414 | 36057 ft | 463 kts | 5° |
| 2026-05-09 17:12 | 51.06771 | 9.66588 | 36063 ft | 463 kts | 5° |
| 2026-05-09 17:12 | 51.13174 | 9.67766 | 36065 ft | 463 kts | 5° |
| 2026-05-09 17:13 | 51.19581 | 9.68928 | 36075 ft | 463 kts | 3° |
| 2026-05-09 17:13 | 51.25989 | 9.68675 | 36075 ft | 460 kts | 353° |
| 2026-05-09 17:14 | 51.32362 | 9.67748 | 36070 ft | 460 kts | 353° |
| 2026-05-09 17:14 | 51.37658 | 9.66984 | 36074 ft | 460 kts | 353° |
| 2026-05-09 17:15 | 51.44034 | 9.66131 | 36085 ft | 460 kts | 353° |
| 2026-05-09 17:15 | 51.50417 | 9.65317 | 36071 ft | 460 kts | 354° |
| 2026-05-09 17:17 | 51.76017 | 9.62065 | 36075 ft | 464 kts | 353° |
| 2026-05-09 17:18 | 51.82449 | 9.61240 | 36086 ft | 464 kts | 353° |
| 2026-05-09 17:18 | 51.88883 | 9.60413 | 36081 ft | 464 kts | 353° |
| 2026-05-09 17:19 | 51.95276 | 9.59588 | 36081 ft | 464 kts | 353° |
| 2026-05-09 17:19 | 52.01719 | 9.58755 | 36098 ft | 464 kts | 353° |
| 2026-05-09 17:20 | 52.08150 | 9.57921 | 36086 ft | 464 kts | 353° |
| 2026-05-09 17:20 | 52.14588 | 9.57083 | 36111 ft | 463 kts | 353° |
| 2026-05-09 17:21 | 52.21017 | 9.56244 | 36097 ft | 463 kts | 353° |
| 2026-05-09 17:21 | 52.27443 | 9.55403 | 36100 ft | 463 kts | 353° |
| 2026-05-09 17:22 | 52.33864 | 9.54561 | 36103 ft | 463 kts | 353° |
| 2026-05-09 17:22 | 52.40282 | 9.53716 | 36115 ft | 463 kts | 353° |
| 2026-05-09 17:23 | 52.46707 | 9.52868 | 36104 ft | 463 kts | 353° |
| 2026-05-09 17:23 | 52.53124 | 9.52018 | 36104 ft | 463 kts | 353° |
| 2026-05-09 17:25 | 52.72385 | 9.49453 | 36109 ft | 463 kts | 353° |
| 2026-05-09 17:25 | 52.78803 | 9.48593 | 36111 ft | 463 kts | 353° |
| 2026-05-09 17:26 | 52.85227 | 9.47730 | 36109 ft | 463 kts | 353° |
| 2026-05-09 17:26 | 52.91646 | 9.46865 | 36115 ft | 463 kts | 353° |
| 2026-05-09 17:27 | 52.98030 | 9.46002 | 36116 ft | 463 kts | 353° |
| 2026-05-09 17:27 | 53.04451 | 9.45132 | 36121 ft | 463 kts | 353° |
| 2026-05-09 17:28 | 53.10867 | 9.44259 | 36121 ft | 463 kts | 353° |
| 2026-05-09 17:28 | 53.17289 | 9.43384 | 36119 ft | 463 kts | 353° |
| 2026-05-09 17:29 | 53.23705 | 9.42506 | 36119 ft | 463 kts | 353° |
| 2026-05-09 17:29 | 53.30122 | 9.41625 | 36117 ft | 463 kts | 353° |
| 2026-05-09 17:30 | 53.36543 | 9.40742 | 36127 ft | 463 kts | 353° |
| 2026-05-09 17:30 | 53.42962 | 9.39856 | 36126 ft | 463 kts | 353° |
| 2026-05-09 17:31 | 53.49380 | 9.38967 | 36119 ft | 463 kts | 353° |
| 2026-05-09 17:32 | 53.65438 | 9.36732 | 36129 ft | 464 kts | 353° |
| 2026-05-09 17:33 | 53.71879 | 9.35830 | 36130 ft | 465 kts | 353° |
| 2026-05-09 17:33 | 53.78300 | 9.34929 | 36123 ft | 466 kts | 353° |
| 2026-05-09 17:34 | 53.84771 | 9.34018 | 36115 ft | 467 kts | 353° |
| 2026-05-09 17:35 | 54.07468 | 9.30800 | 36113 ft | 468 kts | 353° |
| 2026-05-09 17:36 | 54.13956 | 9.29874 | 36126 ft | 468 kts | 353° |
| 2026-05-09 17:36 | 54.20212 | 9.28978 | 36113 ft | 468 kts | 352° |
| 2026-05-09 17:37 | 54.26698 | 9.28046 | 36115 ft | 468 kts | 352° |
| 2026-05-09 17:37 | 54.33180 | 9.27111 | 36118 ft | 468 kts | 352° |
| 2026-05-09 17:38 | 54.39668 | 9.26173 | 36116 ft | 468 kts | 352° |
| 2026-05-09 17:39 | 54.49402 | 9.24760 | 36119 ft | 468 kts | 352° |
| 2026-05-09 17:39 | 54.55884 | 9.23815 | 36129 ft | 468 kts | 352° |
| 2026-05-09 17:40 | 54.62373 | 9.22867 | 36130 ft | 468 kts | 352° |
| 2026-05-09 17:40 | 54.68866 | 9.21914 | 36140 ft | 468 kts | 352° |
| 2026-05-09 17:41 | 54.75364 | 9.20957 | 36140 ft | 470 kts | 352° |
| 2026-05-09 17:41 | 54.81892 | 9.19993 | 36147 ft | 471 kts | 352° |
| 2026-05-09 17:42 | 54.88391 | 9.19160 | 36139 ft | 473 kts | 354° |
| 2026-05-09 17:42 | 54.94991 | 9.18906 | 36160 ft | 475 kts | 356° |
| 2026-05-09 17:43 | 55.01604 | 9.18790 | 36152 ft | 476 kts | 356° |
| 2026-05-09 17:43 | 55.08226 | 9.18624 | 36155 ft | 476 kts | 355° |
| 2026-05-09 17:44 | 55.14846 | 9.18409 | 36155 ft | 476 kts | 355° |
| 2026-05-09 17:44 | 55.21471 | 9.18176 | 36169 ft | 476 kts | 355° |
| 2026-05-09 17:45 | 55.28095 | 9.17940 | 36162 ft | 476 kts | 355° |
| 2026-05-09 17:45 | 55.34717 | 9.17707 | 36158 ft | 476 kts | 355° |
| 2026-05-09 17:46 | 55.41337 | 9.17474 | 36155 ft | 476 kts | 355° |
| 2026-05-09 17:46 | 55.47914 | 9.17242 | 36164 ft | 476 kts | 355° |
| 2026-05-09 17:47 | 55.54574 | 9.17006 | 36154 ft | 476 kts | 355° |
| 2026-05-09 17:47 | 55.61194 | 9.16770 | 36155 ft | 476 kts | 355° |
| 2026-05-09 17:48 | 55.67807 | 9.16535 | 36155 ft | 475 kts | 355° |
| 2026-05-09 17:48 | 55.74420 | 9.16298 | 36156 ft | 475 kts | 355° |
| 2026-05-09 17:49 | 55.80995 | 9.16062 | 36155 ft | 475 kts | 355° |
| 2026-05-09 17:49 | 55.87609 | 9.15823 | 36156 ft | 475 kts | 355° |
| 2026-05-09 17:50 | 55.94221 | 9.15584 | 36154 ft | 475 kts | 355° |
| 2026-05-09 17:50 | 56.02866 | 9.15271 | 36157 ft | 476 kts | 355° |
| 2026-05-09 17:51 | 56.10558 | 9.14990 | 36149 ft | 476 kts | 355° |
| 2026-05-09 17:51 | 56.17183 | 9.14748 | 36150 ft | 477 kts | 355° |
| 2026-05-09 17:52 | 56.23822 | 9.14503 | 36166 ft | 478 kts | 355° |
| 2026-05-09 17:52 | 56.30479 | 9.14257 | 36138 ft | 479 kts | 354° |
| 2026-05-09 17:53 | 56.37156 | 9.14011 | 36134 ft | 480 kts | 354° |
| 2026-05-09 17:53 | 56.43845 | 9.13763 | 36132 ft | 481 kts | 354° |
| 2026-05-09 17:54 | 56.50533 | 9.13514 | 36136 ft | 481 kts | 354° |
| 2026-05-09 17:54 | 56.57233 | 9.13264 | 36143 ft | 482 kts | 354° |
| 2026-05-09 17:55 | 56.63939 | 9.13012 | 36154 ft | 482 kts | 354° |
| 2026-05-09 17:55 | 56.70650 | 9.12760 | 36145 ft | 482 kts | 354° |
| 2026-05-09 17:56 | 56.77317 | 9.12509 | 36146 ft | 482 kts | 354° |
| 2026-05-09 17:57 | 56.87387 | 9.12127 | 36160 ft | 483 kts | 354° |
| 2026-05-09 17:57 | 56.94103 | 9.11871 | 36157 ft | 483 kts | 354° |
| 2026-05-09 17:58 | 57.00813 | 9.11614 | 36162 ft | 483 kts | 354° |
| 2026-05-09 17:58 | 57.07532 | 9.11357 | 36169 ft | 483 kts | 354° |
| 2026-05-09 17:59 | 57.14250 | 9.11098 | 36156 ft | 483 kts | 354° |
| 2026-05-09 17:59 | 57.20974 | 9.10838 | 36153 ft | 483 kts | 354° |
| 2026-05-09 18:00 | 57.27651 | 9.10579 | 36153 ft | 483 kts | 354° |
| 2026-05-09 18:00 | 57.34375 | 9.10317 | 36175 ft | 483 kts | 353° |
| 2026-05-09 18:01 | 57.41101 | 9.10053 | 36169 ft | 484 kts | 353° |
| 2026-05-09 18:01 | 57.47834 | 9.09789 | 36160 ft | 484 kts | 353° |
| 2026-05-09 18:02 | 57.54567 | 9.09524 | 36160 ft | 484 kts | 353° |
| 2026-05-09 18:02 | 57.61299 | 9.09259 | 36190 ft | 484 kts | 353° |
| 2026-05-09 18:03 | 57.67999 | 9.08993 | 36195 ft | 485 kts | 353° |
| 2026-05-09 18:03 | 57.74764 | 9.08722 | 36174 ft | 487 kts | 353° |
| 2026-05-09 18:04 | 57.81549 | 9.08451 | 36164 ft | 488 kts | 353° |
| 2026-05-09 18:04 | 57.88338 | 9.08179 | 36190 ft | 488 kts | 353° |
| 2026-05-09 18:05 | 57.95145 | 9.07905 | 36167 ft | 489 kts | 353° |
| 2026-05-09 18:05 | 58.01953 | 9.07631 | 36161 ft | 490 kts | 353° |
| 2026-05-09 18:06 | 58.08770 | 9.07355 | 36159 ft | 490 kts | 353° |
| 2026-05-09 18:06 | 58.14429 | 9.07125 | 36158 ft | 489 kts | 353° |
| 2026-05-09 18:07 | 58.21127 | 9.06865 | 36137 ft | 468 kts | 352° |
| 2026-05-09 18:07 | 58.24327 | 9.06748 | 36125 ft | 452 kts | 352° |
| 2026-05-09 18:07 | 58.27421 | 9.06632 | 36137 ft | 439 kts | 352° |
| 2026-05-09 18:08 | 58.33512 | 9.06367 | 36163 ft | 438 kts | 351° |
| 2026-05-09 18:08 | 58.39616 | 9.06094 | 36159 ft | 439 kts | 352° |
| 2026-05-09 18:09 | 58.45732 | 9.05834 | 36160 ft | 440 kts | 352° |
| 2026-05-09 18:09 | 58.51870 | 9.05579 | 36154 ft | 441 kts | 352° |
| 2026-05-09 18:10 | 58.58013 | 9.05323 | 36154 ft | 442 kts | 352° |
| 2026-05-09 18:10 | 58.64171 | 9.05066 | 36144 ft | 443 kts | 352° |
| 2026-05-09 18:11 | 58.70329 | 9.04808 | 36141 ft | 443 kts | 352° |
| 2026-05-09 18:11 | 58.76492 | 9.04548 | 36142 ft | 443 kts | 351° |
| 2026-05-09 18:12 | 58.82673 | 9.04757 | 36122 ft | 453 kts | 5° |
| 2026-05-09 18:12 | 58.85713 | 9.06511 | 36151 ft | 461 kts | 19° |
| 2026-05-09 18:12 | 58.88512 | 9.09618 | 36132 ft | 469 kts | 34° |
| 2026-05-09 18:13 | 58.93597 | 9.17540 | 36145 ft | 469 kts | 37° |
| 2026-05-09 18:13 | 58.98608 | 9.25513 | 36131 ft | 469 kts | 36° |
| 2026-05-09 18:14 | 59.03700 | 9.33461 | 36141 ft | 470 kts | 35° |
| 2026-05-09 18:14 | 59.06259 | 9.37430 | 36038 ft | 474 kts | 35° |
| 2026-05-09 18:14 | 59.08890 | 9.41512 | 35399 ft | 494 kts | 35° |
| 2026-05-09 18:14 | 59.11614 | 9.45744 | 34797 ft | 507 kts | 35° |
| 2026-05-09 18:15 | 59.14402 | 9.50093 | 34195 ft | 520 kts | 35° |
| 2026-05-09 18:15 | 59.17245 | 9.54543 | 33516 ft | 527 kts | 35° |
| 2026-05-09 18:15 | 59.20144 | 9.58955 | 32827 ft | 529 kts | 31° |
| 2026-05-09 18:15 | 59.23188 | 9.62983 | 32152 ft | 527 kts | 28° |